Time;durP1;ratioP1;P1;durP2;ratioP2;P2;SDS_P1;SDS_P2;PMS_P1;PMS_P2;Temp;Humidity;BMP_temperature;BMP_pressure;BME280_temperature;BME280_humidity;BME280_pressure;Samples;Min_cycle;Max_cycle;Signal;HPM_P1;HPM_P2
2021/04/21 00:00:18;;;;;;;22.75;10.55;;;10.50;67.60;;;;;;6185936;23;20004;-49
2021/04/21 00:02:48;;;;;;;29.40;11.45;;;10.50;67.60;;;;;;6186133;23;20008;-49
2021/04/21 00:05:14;;;;;;;27.10;10.65;;;10.50;67.60;;;;;;6186595;23;20031;-49
2021/04/21 00:07:41;;;;;;;20.95;10.18;;;10.50;67.60;;;;;;6186005;23;20322;-49
2021/04/21 00:10:09;;;;;;;23.02;10.68;;;10.50;67.70;;;;;;6186324;23;20072;-49
2021/04/21 00:12:35;;;;;;;25.90;11.18;;;10.50;67.60;;;;;;6209415;23;20301;-49
2021/04/21 00:15:02;;;;;;;28.20;10.95;;;10.50;67.70;;;;;;6186475;23;20001;-49
2021/04/21 00:17:28;;;;;;;33.38;12.02;;;10.50;67.60;;;;;;6186305;23;20079;-49
2021/04/21 00:19:56;;;;;;;31.52;11.75;;;10.50;67.60;;;;;;6185092;23;20012;-50
2021/04/21 00:22:26;;;;;;;25.77;10.80;;;10.50;67.60;;;;;;6185483;23;20364;-49
2021/04/21 00:24:53;;;;;;;25.67;10.98;;;10.50;67.60;;;;;;6186396;23;20009;-49
2021/04/21 00:27:22;;;;;;;27.98;10.57;;;10.50;67.60;;;;;;6186182;23;20305;-49
2021/04/21 00:29:52;;;;;;;20.52;9.13;;;10.50;67.60;;;;;;6185907;23;20033;-49
2021/04/21 00:32:19;;;;;;;23.90;11.15;;;10.50;67.70;;;;;;6185891;23;20005;-50
2021/04/21 00:34:46;;;;;;;19.45;9.02;;;10.50;67.70;;;;;;6185872;23;20445;-49
2021/04/21 00:37:13;;;;;;;27.85;10.73;;;10.40;67.60;;;;;;6185990;23;20009;-50
2021/04/21 00:39:43;;;;;;;22.30;10.00;;;10.40;67.60;;;;;;6186007;23;20005;-50
2021/04/21 00:42:20;;;;;;;;;;;10.40;67.60;;;;;;6186323;23;20021;-49
2021/04/21 00:44:57;;;;;;;21.45;10.32;;;10.40;67.60;;;;;;6186193;23;19904;-50
2021/04/21 00:47:30;;;;;;;28.02;11.48;;;10.40;67.70;;;;;;6185569;23;20009;-49
2021/04/21 00:50:11;;;;;;;22.75;11.10;;;10.40;67.60;;;;;;6185583;23;20404;-49
2021/04/21 00:52:45;;;;;;;27.70;11.05;;;10.40;67.60;;;;;;6186036;23;20016;-49
2021/04/21 00:55:11;;;;;;;32.78;12.25;;;10.40;67.70;;;;;;6185807;23;20021;-49
2021/04/21 00:58:04;;;;;;;21.50;10.68;;;10.40;67.60;;;;;;6185588;23;20005;-49
2021/04/21 01:00:36;;;;;;;33.25;11.93;;;10.40;67.70;;;;;;6185810;23;20031;-50
2021/04/21 01:03:09;;;;;;;24.23;11.00;;;10.40;67.60;;;;;;6185943;23;20268;-49
2021/04/21 01:05:41;;;;;;;29.88;11.95;;;10.40;67.60;;;;;;6185538;23;20063;-49
2021/04/21 01:08:10;;;;;;;24.70;11.07;;;10.40;68.50;;;;;;6185404;23;20085;-49
2021/04/21 01:10:46;;;;;;;24.65;11.32;;;10.40;67.70;;;;;;6185592;23;20060;-49
2021/04/21 01:13:13;;;;;;;26.50;11.40;;;10.40;67.70;;;;;;6185990;23;20001;-49
2021/04/21 01:15:41;;;;;;;26.40;11.10;;;10.40;67.70;;;;;;6185456;23;20396;-49
2021/04/21 01:18:10;;;;;;;23.67;11.38;;;10.40;67.60;;;;;;6185297;23;20028;-49
2021/04/21 01:21:14;;;;;;;24.52;11.65;;;10.40;67.70;;;;;;6185129;23;20009;-49
2021/04/21 01:23:42;;;;;;;25.75;10.40;;;10.40;67.70;;;;;;6185834;23;20031;-50
2021/04/21 01:26:11;;;;;;;24.05;10.93;;;10.40;67.70;;;;;;6185677;23;20364;-49
2021/04/21 01:28:47;;;;;;;29.83;12.23;;;10.30;67.70;;;;;;6185400;23;20005;-49
2021/04/21 01:31:15;;;;;;;24.73;11.07;;;10.30;67.60;;;;;;6188093;23;20039;-49
2021/04/21 01:33:44;;;;;;;26.02;10.65;;;10.40;67.70;;;;;;6189135;23;20042;-49
2021/04/21 01:36:12;;;;;;;32.58;12.45;;;10.30;67.60;;;;;;6189094;23;20015;-49
2021/04/21 01:38:39;;;;;;;25.70;11.20;;;10.40;68.50;;;;;;6188781;23;20060;-49
2021/04/21 01:41:10;;;;;;;24.83;10.77;;;10.40;67.70;;;;;;6189124;23;20005;-49
2021/04/21 01:43:44;;;;;;;27.73;11.40;;;10.40;67.80;;;;;;6188883;23;20337;-49
2021/04/21 01:46:12;;;;;;;30.17;10.65;;;10.30;67.60;;;;;;6187579;23;20425;-49
2021/04/21 01:48:40;;;;;;;22.75;10.55;;;10.30;67.70;;;;;;6188275;23;20298;-49
2021/04/21 01:51:14;;;;;;;22.92;10.93;;;10.30;67.60;;;;;;6188755;23;20453;-49
2021/04/21 01:53:51;;;;;;;29.85;11.90;;;10.30;67.60;;;;;;6189153;23;20301;-49
2021/04/21 01:56:22;;;;;;;29.77;12.35;;;10.30;67.60;;;;;;6189117;23;19993;-50
2021/04/21 01:59:02;;;;;;;27.75;11.82;;;10.30;67.70;;;;;;6188083;23;20005;-49
2021/04/21 02:01:36;;;;;;;28.70;12.02;;;10.30;67.60;;;;;;6189157;23;20012;-50
2021/04/21 02:04:13;;;;;;;30.38;12.73;;;10.30;67.60;;;;;;6188759;23;20001;-49
2021/04/21 02:06:59;;;;;;;30.42;11.60;;;10.30;67.60;;;;;;6188944;23;20048;-49
2021/04/21 02:10:05;;;;;;;28.90;11.63;;;10.30;67.60;;;;;;6188394;23;20284;-49
2021/04/21 02:12:37;;;;;;;28.70;11.25;;;10.30;67.70;;;;;;6189037;23;19997;-50
2021/04/21 02:15:14;;;;;;;31.63;12.65;;;10.30;67.70;;;;;;6188572;23;20096;-50
2021/04/21 02:17:59;;;;;;;33.20;12.95;;;10.30;67.70;;;;;;6189134;23;20066;-49
2021/04/21 02:20:43;;;;;;;27.77;11.40;;;10.30;67.70;;;;;;6188096;23;20193;-49
2021/04/21 02:23:38;;;;;;;28.63;12.45;;;10.30;67.70;;;;;;6188705;23;20297;-49
2021/04/21 02:26:27;;;;;;;24.83;11.50;;;10.30;67.70;;;;;;6188512;23;20009;-49
2021/04/21 02:29:04;;;;;;;32.30;13.45;;;10.30;67.70;;;;;;6188043;23;20101;-49
2021/04/21 02:31:42;;;;;;;24.17;11.18;;;10.30;68.40;;;;;;6188813;23;20001;-49
2021/04/21 02:34:13;;;;;;;27.35;12.63;;;10.30;67.70;;;;;;6188807;23;20118;-49
2021/04/21 02:36:50;;;;;;;34.90;12.68;;;10.30;67.70;;;;;;6189048;23;20032;-49
2021/04/21 02:39:21;;;;;;;29.75;12.45;;;10.30;67.70;;;;;;6188569;23;20007;-49
2021/04/21 02:42:10;;;;;;;25.27;11.43;;;10.30;67.70;;;;;;6183966;23;20351;-49
2021/04/21 02:44:56;;;;;;;22.80;10.90;;;10.30;67.70;;;;;;6186580;23;20278;-49
2021/04/21 02:47:29;;;;;;;28.35;10.45;;;10.30;67.70;;;;;;6187076;23;20009;-49
2021/04/21 02:50:09;;;;;;;33.22;11.15;;;10.20;67.60;;;;;;6186966;23;20012;-49
2021/04/21 02:52:53;;;;;;;27.35;12.90;;;10.20;67.60;;;;;;6187124;23;20027;-49
2021/04/21 02:55:52;;;;;;;28.50;11.63;;;10.20;67.60;;;;;;6186955;23;20354;-49
2021/04/21 02:58:41;;;;;;;25.50;11.35;;;10.20;67.60;;;;;;6186442;23;20009;-49
2021/04/21 03:01:19;;;;;;;29.10;11.60;;;10.20;67.60;;;;;;6187128;23;20001;-49
2021/04/21 03:03:55;;;;;;;30.88;12.13;;;10.20;67.70;;;;;;6187143;23;20005;-49
2021/04/21 03:06:31;;;;;;;24.08;10.75;;;10.20;67.60;;;;;;6186984;23;20013;-49
2021/04/21 03:09:03;;;;;;;27.85;11.88;;;10.20;67.60;;;;;;6186457;23;20008;-49
2021/04/21 03:11:31;;;;;;;29.27;11.80;;;10.20;67.60;;;;;;6187319;23;19997;-49
2021/04/21 03:14:03;;;;;;;25.73;11.65;;;10.20;67.60;;;;;;6186977;23;20032;-49
2021/04/21 03:16:33;;;;;;;23.23;10.43;;;10.20;67.60;;;;;;6186971;23;20342;-49
2021/04/21 03:19:03;;;;;;;24.73;10.13;;;10.20;67.60;;;;;;6186478;23;20399;-49
2021/04/21 03:21:32;;;;;;;28.67;11.30;;;10.20;67.60;;;;;;6186755;23;20409;-49
2021/04/21 03:24:18;;;;;;;30.20;11.57;;;10.20;67.70;;;;;;6186789;23;20009;-49
2021/04/21 03:26:48;;;;;;;27.30;12.10;;;10.20;67.70;;;;;;6186680;23;20016;-49
2021/04/21 03:29:21;;;;;;;35.78;12.77;;;10.20;67.60;;;;;;6186320;23;20009;-50
2021/04/21 03:31:48;;;;;;;29.60;12.20;;;10.20;67.60;;;;;;6187077;23;20341;-49
2021/04/21 03:34:16;;;;;;;22.17;10.63;;;10.20;67.60;;;;;;6186472;23;20048;-49
2021/04/21 03:36:43;;;;;;;25.10;12.10;;;10.20;67.60;;;;;;6186847;23;20013;-49
2021/04/21 03:39:11;;;;;;;26.23;11.77;;;10.20;67.60;;;;;;6186234;23;20021;-50
2021/04/21 03:41:37;;;;;;;32.05;11.95;;;10.20;67.60;;;;;;6186563;23;20061;-49
2021/04/21 03:44:03;;;;;;;33.30;12.77;;;10.20;67.50;;;;;;6186464;23;20005;-49
2021/04/21 03:46:30;;;;;;;30.13;12.18;;;10.10;67.50;;;;;;6186733;23;20031;-49
2021/04/21 03:48:57;;;;;;;28.77;12.43;;;10.10;67.50;;;;;;6186255;23;20008;-49
2021/04/21 03:51:23;;;;;;;28.73;11.68;;;10.10;67.50;;;;;;6186030;23;20091;-49
2021/04/21 03:53:51;;;;;;;25.92;11.45;;;10.10;67.50;;;;;;6186447;23;20075;-49
2021/04/21 03:56:21;;;;;;;28.25;11.95;;;10.10;67.40;;;;;;6186319;23;20008;-49
2021/04/21 03:58:47;;;;;;;;;;;10.10;67.50;;;;;;6186433;23;20008;-49
2021/04/21 04:01:18;;;;;;;35.65;12.00;;;10.10;67.40;;;;;;6186439;23;19908;-49
2021/04/21 04:03:49;;;;;;;32.30;12.48;;;10.10;67.40;;;;;;6186595;23;20005;-49
2021/04/21 04:06:20;;;;;;;27.83;11.88;;;10.10;67.40;;;;;;6186539;23;20020;-49
2021/04/21 04:08:55;;;;;;;;;;;10.10;67.50;;;;;;6186367;23;20025;-49
2021/04/21 04:11:50;;;;;;;33.72;12.20;;;10.10;67.40;;;;;;6186676;23;19900;-49
2021/04/21 04:14:24;;;;;;;25.85;10.65;;;10.10;67.40;;;;;;6184750;23;20007;-49
2021/04/21 04:16:55;;;;;;;34.42;11.63;;;10.10;67.40;;;;;;6186351;23;20001;-49
2021/04/21 04:19:22;;;;;;;33.65;13.13;;;10.10;67.40;;;;;;6185111;23;20040;-49
2021/04/21 04:21:55;;;;;;;28.35;11.80;;;10.10;67.40;;;;;;6186091;23;20001;-49
2021/04/21 04:24:23;;;;;;;29.08;11.82;;;10.10;67.40;;;;;;6186207;23;20009;-49
2021/04/21 04:26:49;;;;;;;26.50;11.05;;;10.10;67.40;;;;;;6186318;23;20044;-49
2021/04/21 04:29:15;;;;;;;28.40;12.73;;;10.10;67.40;;;;;;6185421;23;20031;-49
2021/04/21 04:31:41;;;;;;;29.63;12.32;;;10.10;67.40;;;;;;6186225;23;20005;-49
2021/04/21 04:34:09;;;;;;;29.05;12.02;;;10.10;67.40;;;;;;6185018;23;20330;-49
2021/04/21 04:36:37;;;;;;;26.23;10.90;;;10.10;67.30;;;;;;6185129;23;20009;-49
2021/04/21 04:39:05;;;;;;;26.85;10.98;;;10.10;67.30;;;;;;6185646;23;20005;-49
2021/04/21 04:41:32;;;;;;;27.80;11.95;;;10.10;67.20;;;;;;6185522;23;20005;-49
2021/04/21 04:43:59;;;;;;;29.23;12.00;;;10.10;67.30;;;;;;6185795;23;20053;-49
2021/04/21 04:46:29;;;;;;;30.80;12.77;;;10.10;67.30;;;;;;6185475;23;20071;-49
2021/04/21 04:49:07;;;;;;;25.40;11.38;;;10.10;67.20;;;;;;6185696;23;20016;-49
2021/04/21 04:51:36;;;;;;;29.63;9.93;;;10.10;67.30;;;;;;6186034;23;20005;-49
2021/04/21 04:54:05;;;;;;;25.52;9.35;;;10.10;67.20;;;;;;6185867;23;20012;-49
2021/04/21 04:56:35;;;;;;;26.90;11.10;;;10.10;67.20;;;;;;6185965;23;20005;-49
2021/04/21 04:59:05;;;;;;;22.15;10.35;;;10.10;67.10;;;;;;6185615;23;20305;-49
2021/04/21 05:01:43;;;;;;;;;;;10.10;67.10;;;;;;6186423;23;20005;-49
2021/04/21 05:04:10;;;;;;;23.13;10.00;;;10.10;67.00;;;;;;6185940;23;20067;-49
2021/04/21 05:06:39;;;;;;;28.30;11.05;;;10.10;67.10;;;;;;6185756;23;20039;-49
2021/04/21 05:09:10;;;;;;;26.20;11.85;;;10.10;67.00;;;;;;6184938;23;20471;-46
2021/04/21 05:11:38;;;;;;;36.70;14.10;;;10.10;66.60;;;;;;6185895;23;20063;-47
2021/04/21 05:14:11;;;;;;;32.08;12.80;;;10.00;66.50;;;;;;6185491;23;20389;-47
2021/04/21 05:16:55;;;;;;;22.45;10.00;;;10.00;66.20;;;;;;6186030;23;20001;-47
2021/04/21 05:19:45;;;;;;;22.42;10.85;;;10.00;66.10;;;;;;6184985;23;20467;-48
2021/04/21 05:22:17;;;;;;;22.05;10.07;;;10.10;65.90;;;;;;6185963;23;20025;-48
2021/04/21 05:25:07;;;;;;;22.40;9.48;;;10.10;65.90;;;;;;6185111;23;20286;-48
2021/04/21 05:28:00;;;;;;;32.03;12.68;;;10.10;65.80;;;;;;6185952;23;20017;-48
2021/04/21 05:30:47;;;;;;;31.38;11.75;;;10.10;65.80;;;;;;6185604;23;20009;-48
2021/04/21 05:33:56;;;;;;;30.88;11.60;;;10.10;65.60;;;;;;6185486;23;20397;-48
2021/04/21 05:36:34;;;;;;;31.10;12.88;;;10.20;65.50;;;;;;6185442;23;20016;-48
2021/04/21 05:39:33;;;;;;;23.58;10.07;;;10.20;65.30;;;;;;6185334;23;20005;-48
2021/04/21 05:42:32;;;;;;;20.25;9.80;;;10.20;65.20;;;;;;6185440;23;20397;-48
2021/04/21 05:45:16;;;;;;;27.17;12.00;;;10.20;65.10;;;;;;6185200;23;20317;-48
2021/04/21 05:48:23;;;;;;;29.08;12.52;;;10.30;65.00;;;;;;6185620;23;20005;-48
2021/04/21 05:50:58;;;;;;;29.05;10.95;;;10.30;64.90;;;;;;6185137;23;20449;-48
2021/04/21 05:53:44;;;;;;;27.25;9.77;;;10.30;64.60;;;;;;6185305;23;20016;-48
2021/04/21 05:56:37;;;;;;;27.70;10.80;;;10.40;64.60;;;;;;6185757;23;20005;-48
2021/04/21 05:59:12;;;;;;;28.00;10.43;;;10.40;64.60;;;;;;6184628;23;20005;-48
2021/04/21 06:01:42;;;;;;;30.13;11.63;;;10.40;64.70;;;;;;6185651;23;20008;-48
2021/04/21 06:04:08;;;;;;;27.65;11.85;;;10.40;64.70;;;;;;6185642;23;20005;-48
2021/04/21 06:06:34;;;;;;;30.10;12.13;;;10.40;64.60;;;;;;6185311;23;20009;-48
2021/04/21 06:09:06;;;;;;;31.35;13.38;;;10.50;64.60;;;;;;6185168;23;20001;-48
2021/04/21 06:11:32;;;;;;;28.27;11.38;;;10.50;64.60;;;;;;6185495;23;20001;-48
2021/04/21 06:14:00;;;;;;;32.15;11.68;;;10.50;65.20;;;;;;6185183;23;20714;-48
2021/04/21 06:16:27;;;;;;;26.45;11.00;;;10.60;64.50;;;;;;6185711;23;20002;-48
2021/04/21 06:19:11;;;;;;;28.80;13.25;;;10.60;64.50;;;;;;6186734;23;20063;-50
2021/04/21 06:21:39;;;;;;;31.15;12.98;;;10.60;64.30;;;;;;6187701;23;20001;-49
2021/04/21 06:24:26;;;;;;;32.97;12.57;;;10.60;64.10;;;;;;6187167;23;20009;-49
2021/04/21 06:27:10;;;;;;;24.55;9.93;;;10.70;64.00;;;;;;6187005;23;20091;-49
2021/04/21 06:29:36;;;;;;;36.45;11.73;;;10.70;63.90;;;;;;6187027;23;19997;-49
2021/04/21 06:32:04;;;;;;;42.35;12.43;;;10.80;64.00;;;;;;6187019;23;20064;-49
2021/04/21 06:34:30;;;;;;;40.35;14.00;;;10.80;64.00;;;;;;6187207;23;20112;-49
2021/04/21 06:36:58;;;;;;;34.17;13.18;;;10.90;64.00;;;;;;6186965;23;20382;-49
2021/04/21 06:39:25;;;;;;;42.15;14.20;;;10.90;63.90;;;;;;6186766;23;19997;-49
2021/04/21 06:41:59;;;;;;;31.33;13.25;;;10.90;64.00;;;;;;6186876;23;20001;-49
2021/04/21 06:44:42;;;;;;;28.85;13.25;;;11.00;63.90;;;;;;6187335;23;20009;-50
2021/04/21 06:47:28;;;;;;;35.03;12.30;;;11.00;63.80;;;;;;6187012;23;20016;-49
2021/04/21 06:50:08;;;;;;;40.30;15.63;;;11.10;63.80;;;;;;6186582;23;20029;-49
2021/04/21 06:52:34;;;;;;;33.53;14.03;;;11.10;63.80;;;;;;6187234;23;20009;-49
2021/04/21 06:55:07;;;;;;;30.55;13.98;;;11.10;63.70;;;;;;6187139;23;20578;-49
2021/04/21 06:57:33;;;;;;;30.35;13.13;;;11.20;63.80;;;;;;6186754;23;20012;-50
2021/04/21 07:00:07;;;;;;;29.70;13.25;;;11.20;63.70;;;;;;6186681;23;20001;-49
2021/04/21 07:02:44;;;;;;;30.73;12.65;;;11.30;63.80;;;;;;6186695;23;20079;-50
2021/04/21 07:05:30;;;;;;;28.50;12.85;;;11.30;63.80;;;;;;6187082;23;20005;-49
2021/04/21 07:08:17;;;;;;;24.85;11.38;;;11.30;64.40;;;;;;6186646;23;20079;-49
2021/04/21 07:10:54;;;;;;;29.25;11.90;;;11.40;63.80;;;;;;6186634;23;20007;-49
2021/04/21 07:13:23;;;;;;;36.65;14.30;;;11.40;63.70;;;;;;6187140;23;20012;-49
2021/04/21 07:15:54;;;;;;;38.28;16.65;;;11.40;63.70;;;;;;6186848;23;20084;-49
2021/04/21 07:18:23;;;;;;;39.60;17.23;;;11.50;63.70;;;;;;6186430;23;20072;-49
2021/04/21 07:20:49;;;;;;;33.38;14.52;;;11.50;63.70;;;;;;6186383;23;20012;-49
2021/04/21 07:23:21;;;;;;;39.40;16.35;;;11.50;63.60;;;;;;6187045;23;20274;-49
2021/04/21 07:25:49;;;;;;;44.88;18.63;;;11.60;63.60;;;;;;6186713;23;20017;-49
2021/04/21 07:28:16;;;;;;;41.35;16.00;;;11.60;63.60;;;;;;6186658;23;19997;-49
2021/04/21 07:30:43;;;;;;;47.85;19.08;;;11.70;63.60;;;;;;6185979;23;20440;-49
2021/04/21 07:33:09;;;;;;;44.08;19.45;;;11.70;63.60;;;;;;6186536;23;20001;-49
2021/04/21 07:35:35;;;;;;;47.38;18.88;;;11.70;63.50;;;;;;6186281;23;20529;-49
2021/04/21 07:38:01;;;;;;;34.88;15.75;;;11.80;63.50;;;;;;6186792;23;20017;-49
2021/04/21 07:40:36;;;;;;;48.38;18.63;;;11.80;64.30;;;;;;6186027;23;20080;-50
2021/04/21 07:43:09;;;;;;;61.20;23.30;;;11.80;63.50;;;;;;6186837;23;20002;-49
2021/04/21 07:45:55;;;;;;;54.00;18.80;;;11.80;63.50;;;;;;6186313;23;20012;-49
2021/04/21 07:48:36;;;;;;;45.42;16.67;;;11.90;63.40;;;;;;6185691;23;20393;-49
2021/04/21 07:54:03;;;;;;;67.40;25.42;;;11.90;63.40;;;;;;6186728;23;19934;-49
2021/04/21 07:56:35;;;;;;;88.63;32.97;;;11.90;63.30;;;;;;6186490;23;20012;-49
2021/04/21 07:59:15;;;;;;;68.70;25.08;;;12.00;63.40;;;;;;6185870;23;20039;-49
2021/04/21 08:01:42;;;;;;;52.67;18.88;;;12.00;63.30;;;;;;6186351;23;20040;-49
2021/04/21 08:04:17;;;;;;;41.95;16.13;;;12.10;63.30;;;;;;6186581;23;20001;-49
2021/04/21 08:06:44;;;;;;;47.78;18.77;;;12.10;63.30;;;;;;6186411;23;20020;-49
2021/04/21 08:09:10;;;;;;;60.05;24.27;;;12.10;63.40;;;;;;6186134;23;20339;-49
2021/04/21 08:11:36;;;;;;;22.95;10.65;;;12.10;63.30;;;;;;6186122;23;20009;-49
2021/04/21 08:14:04;;;;;;;23.63;9.75;;;12.10;63.20;;;;;;6186599;23;20440;-49
2021/04/21 08:16:31;;;;;;;29.80;12.70;;;12.20;63.20;;;;;;6185846;23;20036;-50
2021/04/21 08:18:59;;;;;;;26.30;11.35;;;12.20;63.30;;;;;;6185751;23;20084;-50
2021/04/21 08:21:44;;;;;;;24.25;10.38;;;12.20;63.30;;;;;;6186031;23;20008;-49
2021/04/21 08:24:13;;;;;;;37.78;16.50;;;12.20;63.20;;;;;;6185934;23;20417;-49
2021/04/21 08:26:43;;;;;;;52.97;21.60;;;12.20;63.20;;;;;;6185663;23;20286;-49
2021/04/21 08:29:11;;;;;;;34.13;15.75;;;12.20;63.10;;;;;;6185718;23;20001;-49
2021/04/21 08:31:37;;;;;;;34.75;11.98;;;12.30;63.20;;;;;;6186217;23;20048;-49
2021/04/21 08:34:04;;;;;;;24.50;9.20;;;12.30;63.10;;;;;;6186176;23;20009;-49
2021/04/21 08:36:30;;;;;;;35.83;15.25;;;12.30;63.20;;;;;;6185542;23;20397;-49
2021/04/21 08:38:55;;;;;;;20.00;9.73;;;12.30;63.10;;;;;;6185980;23;20091;-50
2021/04/21 08:41:22;;;;;;;37.45;15.00;;;12.30;63.00;;;;;;6185743;23;20009;-49
2021/04/21 08:43:50;;;;;;;33.75;14.95;;;12.30;63.10;;;;;;6185738;23;20385;-49
2021/04/21 08:46:17;;;;;;;31.75;14.90;;;12.40;63.10;;;;;;6185980;23;20092;-50
2021/04/21 08:48:44;;;;;;;29.40;11.95;;;12.40;63.10;;;;;;6185397;23;20463;-49
2021/04/21 08:51:17;;;;;;;42.38;16.73;;;12.40;63.10;;;;;;6185514;23;20431;-49
2021/04/21 08:53:46;;;;;;;42.28;17.48;;;12.40;63.10;;;;;;6185917;23;20005;-49
2021/04/21 08:56:19;;;;;;;17.17;8.77;;;12.40;63.10;;;;;;6185946;23;20001;-49
2021/04/21 08:58:47;;;;;;;34.65;14.95;;;12.40;63.10;;;;;;6185610;23;20221;-49
2021/04/21 09:01:14;;;;;;;47.72;18.33;;;12.40;63.10;;;;;;6185931;23;20012;-49
2021/04/21 09:03:44;;;;;;;59.97;25.25;;;12.40;63.10;;;;;;6185615;23;20092;-49
2021/04/21 09:06:12;;;;;;;56.15;20.48;;;12.40;63.10;;;;;;6185794;23;20023;-49
2021/04/21 09:08:39;;;;;;;73.53;28.50;;;12.40;63.10;;;;;;6185707;23;20005;-49
2021/04/21 09:11:05;;;;;;;78.43;27.58;;;12.40;62.90;;;;;;6185856;23;20025;-50
2021/04/21 09:13:31;;;;;;;24.63;10.55;;;12.40;62.90;;;;;;6186093;23;20297;-49
2021/04/21 09:15:57;;;;;;;19.10;9.45;;;12.50;62.90;;;;;;6185504;23;20036;-49
2021/04/21 09:18:28;;;;;;;26.42;11.25;;;12.50;62.60;;;;;;6185281;23;20005;-49
2021/04/21 09:20:53;;;;;;;32.50;10.95;;;12.50;62.40;;;;;;6185284;23;20021;-49
2021/04/21 09:23:20;;;;;;;32.22;10.52;;;12.50;63.20;;;;;;6186016;23;20024;-49
2021/04/21 09:25:53;;;;;;;7.50;4.38;;;12.50;62.50;;;;;;6185715;23;20075;-49
2021/04/21 09:28:22;;;;;;;24.67;9.57;;;12.60;62.00;;;;;;6185337;23;20009;-49
2021/04/21 09:30:54;;;;;;;17.83;7.88;;;12.50;62.10;;;;;;6185552;23;20443;-49
2021/04/21 09:33:20;;;;;;;26.27;12.35;;;12.60;62.10;;;;;;6185932;23;20031;-49
2021/04/21 09:35:47;;;;;;;44.28;19.83;;;12.60;62.10;;;;;;6185922;23;20001;-49
2021/04/21 09:38:24;;;;;;;55.80;22.67;;;12.50;62.00;;;;;;6185424;23;20016;-49
2021/04/21 09:40:49;;;;;;;78.28;25.45;;;12.60;62.00;;;;;;6185919;23;20072;-49
2021/04/21 09:43:28;;;;;;;45.28;17.45;;;12.60;61.90;;;;;;6185188;23;20029;-49
2021/04/21 09:45:59;;;;;;;26.27;11.88;;;12.60;61.80;;;;;;6186204;23;20065;-49
2021/04/21 09:48:33;;;;;;;21.48;10.23;;;12.60;61.90;;;;;;6185177;23;20079;-49
2021/04/21 09:51:09;;;;;;;34.75;14.50;;;12.60;61.80;;;;;;6185774;23;20009;-49
2021/04/21 09:53:37;;;;;;;17.50;5.53;;;12.60;61.80;;;;;;6187295;23;20001;-49
2021/04/21 09:56:14;;;;;;;31.02;11.85;;;12.70;61.90;;;;;;6187587;23;20396;-49
2021/04/21 09:58:43;;;;;;;39.67;17.55;;;12.70;61.70;;;;;;6187268;23;19993;-50
2021/04/21 10:01:35;;;;;;;39.38;16.58;;;12.70;61.80;;;;;;6187655;23;20005;-49
2021/04/21 10:04:21;;;;;;;35.13;14.85;;;12.70;61.50;;;;;;6187609;23;20008;-49
2021/04/21 10:07:01;;;;;;;30.67;13.98;;;12.70;61.40;;;;;;6187154;23;20486;-49
2021/04/21 10:09:34;;;;;;;22.63;10.27;;;12.70;61.20;;;;;;6187103;23;20010;-49
2021/04/21 10:12:21;;;;;;;15.45;6.65;;;12.70;61.20;;;;;;6187701;23;20009;-49
2021/04/21 10:15:09;;;;;;;0.82;0.80;;;12.70;61.30;;;;;;6187649;23;20009;-49
2021/04/21 10:17:42;;;;;;;6.47;3.33;;;12.80;60.90;;;;;;6187543;23;20161;-49
2021/04/21 10:20:16;;;;;;;14.15;4.25;;;12.80;60.90;;;;;;6186874;23;20013;-49
2021/04/21 10:22:44;;;;;;;14.05;7.28;;;12.90;60.50;;;;;;6186943;23;20423;-49
2021/04/21 10:25:12;;;;;;;16.25;6.78;;;12.90;60.70;;;;;;6187408;23;20001;-49
2021/04/21 10:27:38;;;;;;;14.50;6.38;;;12.80;60.90;;;;;;6187460;23;20324;-49
2021/04/21 10:30:06;;;;;;;10.90;5.70;;;12.80;60.90;;;;;;6187051;23;20051;-49
2021/04/21 10:32:32;;;;;;;10.23;4.95;;;12.90;60.60;;;;;;6187364;23;20147;-49
2021/04/21 10:34:59;;;;;;;21.73;9.30;;;12.90;60.50;;;;;;6187293;23;20305;-49
2021/04/21 10:37:25;;;;;;;20.00;7.30;;;12.90;61.40;;;;;;6187219;23;20005;-49
2021/04/21 10:39:55;;;;;;;18.77;9.07;;;12.90;60.70;;;;;;6186720;23;20294;-49
2021/04/21 10:42:22;;;;;;;20.77;8.77;;;12.90;60.80;;;;;;6186759;23;20405;-49
2021/04/21 10:44:50;;;;;;;22.73;10.38;;;12.80;60.70;;;;;;6187339;23;20229;-49
2021/04/21 10:47:17;;;;;;;21.67;10.30;;;12.80;60.80;;;;;;6187205;23;20351;-49
2021/04/21 10:49:58;;;;;;;16.80;8.15;;;12.80;61.00;;;;;;6186780;23;20083;-49
2021/04/21 10:52:27;;;;;;;6.50;3.70;;;12.90;61.10;;;;;;6186963;23;20043;-49
2021/04/21 10:54:57;;;;;;;5.03;3.60;;;12.90;61.10;;;;;;6187207;23;20001;-49
2021/04/21 10:57:22;;;;;;;3.53;1.73;;;12.80;60.90;;;;;;6187213;23;20020;-49
2021/04/21 11:00:10;;;;;;;13.38;6.30;;;12.90;60.90;;;;;;6186990;23;20005;-49
2021/04/21 11:02:43;;;;;;;9.80;5.30;;;12.90;60.70;;;;;;6185997;23;20001;-49
2021/04/21 11:05:16;;;;;;;17.10;6.78;;;12.90;60.80;;;;;;6187533;23;20000;-49
2021/04/21 11:08:04;;;;;;;8.75;3.83;;;12.90;60.70;;;;;;6187003;23;20005;-49
2021/04/21 11:10:51;;;;;;;9.73;3.60;;;12.90;60.50;;;;;;6186284;23;20394;-49
2021/04/21 11:13:43;;;;;;;17.60;7.45;;;12.90;60.40;;;;;;6186552;23;20008;-49
2021/04/21 11:16:11;;;;;;;14.35;7.18;;;12.90;60.50;;;;;;6186997;23;20084;-49
2021/04/21 11:18:39;;;;;;;17.88;8.63;;;12.90;60.70;;;;;;6186084;23;20531;-50
2021/04/21 11:21:05;;;;;;;21.13;8.40;;;12.90;60.60;;;;;;6186575;23;20001;-49
2021/04/21 11:23:52;;;;;;;24.25;8.93;;;12.80;60.60;;;;;;6186749;23;20072;-49
2021/04/21 11:26:24;;;;;;;15.32;8.63;;;12.90;60.70;;;;;;6186668;23;20413;-49
2021/04/21 11:29:04;;;;;;;20.80;8.68;;;12.90;60.80;;;;;;6186305;23;20001;-49
2021/04/21 11:31:45;;;;;;;12.45;7.18;;;12.90;60.70;;;;;;6186710;23;19996;-49
2021/04/21 11:34:16;;;;;;;17.55;8.10;;;12.90;60.60;;;;;;6186675;23;20005;-49
2021/04/21 11:36:51;;;;;;;14.40;6.60;;;12.90;60.60;;;;;;6186389;23;20001;-49
2021/04/21 11:42:22;;;;;;;16.40;8.93;;;12.90;60.40;;;;;;6186962;23;20024;-49
2021/04/21 11:45:06;;;;;;;16.88;8.50;;;12.90;60.30;;;;;;6186639;23;20033;-49
2021/04/21 11:47:49;;;;;;;16.30;8.30;;;12.90;60.60;;;;;;6186592;23;20032;-49
2021/04/21 11:50:18;;;;;;;15.27;7.30;;;12.90;60.50;;;;;;6185982;23;20475;-49
2021/04/21 11:52:50;;;;;;;14.77;7.03;;;12.90;60.60;;;;;;6186682;23;20016;-49
2021/04/21 11:55:20;;;;;;;11.90;5.47;;;12.90;60.70;;;;;;6186625;23;20048;-49
2021/04/21 11:57:54;;;;;;;;;;;12.90;60.90;;;;;;6210147;23;20000;-49
2021/04/21 12:00:25;;;;;;;11.98;5.28;;;13.00;60.50;;;;;;6186249;23;19900;-49
2021/04/21 12:02:51;;;;;;;8.65;4.53;;;13.00;60.20;;;;;;6186137;23;20058;-49
2021/04/21 12:05:36;;;;;;;19.83;8.35;;;13.00;60.50;;;;;;6186258;23;20092;-49
2021/04/21 12:08:04;;;;;;;16.08;7.03;;;13.10;60.00;;;;;;6186483;23;20033;-49
2021/04/21 12:10:34;;;;;;;10.82;5.03;;;13.10;60.40;;;;;;6186294;23;20057;-49
2021/04/21 12:13:22;;;;;;;9.48;4.78;;;13.10;59.90;;;;;;6186468;23;20426;-49
2021/04/21 12:15:53;;;;;;;14.35;6.30;;;13.10;59.80;;;;;;6186043;23;20308;-49
2021/04/21 12:18:32;;;;;;;1.60;1.33;;;13.10;60.00;;;;;;6186095;23;20004;-49
2021/04/21 12:20:59;;;;;;;6.05;3.15;;;13.10;60.00;;;;;;6186138;23;20415;-49
2021/04/21 12:23:32;;;;;;;11.82;5.80;;;13.10;59.80;;;;;;6186020;23;20040;-49
2021/04/21 12:25:59;;;;;;;14.57;5.60;;;13.00;60.00;;;;;;6185787;23;20016;-49
2021/04/21 12:28:25;;;;;;;11.68;6.38;;;13.00;60.10;;;;;;6185518;23;20079;-49
2021/04/21 12:30:59;;;;;;;12.40;6.25;;;12.90;60.10;;;;;;6186298;23;20393;-49
2021/04/21 12:33:25;;;;;;;12.32;6.45;;;12.90;60.10;;;;;;6186345;23;20045;-49
2021/04/21 12:35:53;;;;;;;9.63;5.45;;;12.90;60.00;;;;;;6186674;23;20040;-49
2021/04/21 12:38:27;;;;;;;13.85;6.53;;;12.90;60.40;;;;;;6185696;23;20123;-49
2021/04/21 12:40:52;;;;;;;12.80;6.32;;;12.90;60.50;;;;;;6186314;23;20005;-49
2021/04/21 12:43:19;;;;;;;14.82;5.60;;;12.90;60.40;;;;;;6186124;23;20005;-49
2021/04/21 12:45:45;;;;;;;13.65;4.43;;;12.90;60.50;;;;;;6186189;23;20017;-49
2021/04/21 12:48:21;;;;;;;14.70;6.43;;;12.90;60.60;;;;;;6185748;23;20005;-49
2021/04/21 12:50:49;;;;;;;13.20;6.18;;;12.90;60.60;;;;;;6186045;23;20093;-49
2021/04/21 12:53:18;;;;;;;10.93;5.97;;;12.90;60.40;;;;;;6185937;23;20024;-49
2021/04/21 12:55:44;;;;;;;12.40;5.90;;;12.90;60.30;;;;;;6186264;23;20020;-49
2021/04/21 12:58:11;;;;;;;10.02;5.10;;;12.90;60.40;;;;;;6185903;23;20029;-49
2021/04/21 13:00:37;;;;;;;8.98;5.30;;;12.90;60.30;;;;;;6185793;23;20016;-49
2021/04/21 13:03:03;;;;;;;13.95;6.35;;;12.90;60.30;;;;;;6185493;23;20088;-49
2021/04/21 13:05:44;;;;;;;12.02;5.63;;;12.80;60.30;;;;;;6185518;23;20013;-49